createdAt,value
2018-11-10T00:00:20.993Z,25.37
2018-11-10T00:02:51.155Z,23.57
2018-11-10T00:05:26.667Z,27.93
2018-11-10T00:07:55.603Z,24.57
2018-11-10T00:10:24.776Z,23.77
2018-11-10T00:12:53.721Z,22.77
2018-11-10T00:15:22.627Z,23.70
2018-11-10T00:17:51.417Z,23.93
2018-11-10T00:20:20.300Z,26.30
2018-11-10T00:22:49.939Z,27.53
2018-11-10T00:25:18.868Z,32.83
2018-11-10T00:27:47.706Z,38.87
2018-11-10T00:30:17.706Z,36.50
2018-11-10T00:32:47.768Z,35.27
2018-11-10T00:35:17.677Z,34.77
2018-11-10T00:37:46.548Z,34.17
2018-11-10T00:40:16.495Z,29.33
2018-11-10T00:42:45.871Z,29.43
2018-11-10T00:45:14.764Z,29.17
2018-11-10T00:47:44.116Z,25.27
2018-11-10T00:50:12.950Z,23.90
2018-11-10T00:52:41.955Z,23.40
2018-11-10T00:55:10.833Z,24.73
2018-11-10T00:57:39.620Z,22.70
2018-11-10T01:00:10.368Z,23.20
2018-11-10T01:02:39.160Z,23.37
2018-11-10T01:05:09.100Z,21.97
2018-11-10T01:07:38.053Z,21.63
2018-11-10T01:10:08.922Z,21.90
2018-11-10T01:12:37.825Z,21.67
2018-11-10T01:15:08.408Z,20.80
2018-11-10T01:17:37.242Z,21.27
2018-11-10T01:20:06.886Z,23.60
2018-11-10T01:22:35.725Z,23.53
2018-11-10T01:25:05.569Z,23.77
2018-11-10T01:27:34.684Z,22.30
2018-11-10T01:30:05.053Z,20.83
2018-11-10T01:32:34.068Z,21.90
2018-11-10T01:35:02.993Z,21.67
2018-11-10T01:37:31.789Z,23.43
2018-11-10T01:40:00.745Z,23.87
2018-11-10T01:42:29.613Z,25.00
2018-11-10T01:44:58.420Z,23.97
2018-11-10T01:47:27.375Z,24.27
2018-11-10T01:49:56.182Z,21.10
2018-11-10T01:52:25.013Z,20.93
2018-11-10T01:54:53.883Z,22.10
2018-11-10T01:57:22.902Z,21.20
2018-11-10T01:59:51.706Z,22.90
2018-11-10T02:02:20.479Z,22.40
2018-11-10T02:04:49.471Z,23.17
2018-11-10T02:07:18.469Z,24.37
2018-11-10T02:09:47.330Z,25.73
2018-11-10T02:12:16.130Z,25.10
2018-11-10T02:14:44.970Z,25.60
2018-11-10T02:17:13.812Z,26.67
2018-11-10T02:19:42.770Z,23.87
2018-11-10T02:22:11.684Z,25.47
2018-11-10T02:24:40.496Z,25.77
2018-11-10T02:27:14.647Z,24.77
2018-11-10T02:29:43.564Z,24.33
2018-11-10T02:32:12.490Z,22.37
2018-11-10T02:34:41.429Z,21.07
2018-11-10T02:37:10.652Z,17.63
2018-11-10T02:39:39.592Z,15.77
2018-11-10T02:42:08.369Z,16.37
2018-11-10T02:44:37.272Z,16.07
2018-11-10T02:47:06.051Z,14.87
2018-11-10T02:49:35.043Z,15.40
2018-11-10T02:52:04.008Z,14.43
2018-11-10T02:54:32.784Z,14.90
2018-11-10T02:57:01.689Z,14.23
2018-11-10T02:59:30.688Z,14.43
2018-11-10T03:01:59.614Z,14.53
2018-11-10T03:04:28.449Z,14.50
2018-11-10T03:06:57.388Z,14.50
2018-11-10T03:09:26.222Z,15.70
2018-11-10T03:11:55.119Z,15.53
2018-11-10T03:14:24.892Z,15.70
2018-11-10T03:16:53.898Z,15.33
2018-11-10T03:19:22.775Z,16.67
2018-11-10T03:21:51.701Z,15.17
2018-11-10T03:24:20.480Z,15.10
2018-11-10T03:26:49.331Z,15.50
2018-11-10T03:29:18.370Z,14.70
2018-11-10T03:31:47.246Z,14.10
2018-11-10T03:34:16.183Z,14.30
2018-11-10T03:36:44.980Z,15.20
2018-11-10T03:39:13.920Z,14.23
2018-11-10T03:41:42.819Z,14.80
2018-11-10T03:44:11.793Z,14.73
2018-11-10T03:46:40.895Z,14.30
2018-11-10T03:49:09.790Z,14.90
2018-11-10T03:51:38.801Z,15.67
2018-11-10T03:54:08.054Z,15.23
2018-11-10T03:56:36.834Z,14.73
2018-11-10T03:59:06.340Z,15.60
2018-11-10T04:01:35.317Z,15.23
2018-11-10T04:04:04.247Z,15.40
2018-11-10T04:06:33.105Z,16.33
2018-11-10T04:09:01.966Z,15.40
2018-11-10T04:11:30.782Z,15.73
2018-11-10T04:13:59.645Z,15.03
2018-11-10T04:16:28.703Z,16.13
2018-11-10T04:18:57.484Z,15.67
2018-11-10T04:21:26.400Z,15.73
2018-11-10T04:23:55.334Z,15.67
2018-11-10T04:26:24.326Z,14.70
2018-11-10T04:28:53.122Z,15.43
2018-11-10T04:31:22.073Z,14.17
2018-11-10T04:33:50.887Z,14.50
2018-11-10T04:36:19.838Z,14.40
2018-11-10T04:38:49.335Z,14.47
2018-11-10T04:41:18.418Z,13.03
2018-11-10T04:43:47.368Z,13.93
2018-11-10T04:46:16.656Z,13.47
2018-11-10T04:48:45.513Z,12.40
2018-11-10T04:51:14.565Z,12.80
2018-11-10T04:53:43.414Z,11.67
2018-11-10T04:56:12.462Z,11.93
2018-11-10T04:58:41.265Z,12.03
2018-11-10T05:01:11.323Z,11.20
2018-11-10T05:03:40.367Z,10.93
2018-11-10T05:06:09.163Z,9.93
2018-11-10T05:08:37.988Z,9.97
2018-11-10T05:11:07.546Z,9.53
2018-11-10T05:13:37.148Z,8.50
2018-11-10T05:16:05.984Z,10.23
2018-11-10T05:18:35.392Z,9.23
2018-11-10T05:21:04.349Z,10.33
2018-11-10T05:23:33.332Z,9.87
2018-11-10T05:26:02.162Z,10.47
2018-11-10T05:28:31.051Z,10.83
2018-11-10T05:31:00.089Z,10.13
2018-11-10T05:33:31.469Z,10.93
2018-11-10T05:36:00.395Z,11.17
2018-11-10T05:38:29.652Z,10.60
2018-11-10T05:40:58.517Z,9.83
2018-11-10T05:43:28.505Z,9.93
2018-11-10T05:45:57.555Z,10.73
2018-11-10T05:48:26.553Z,10.70
2018-11-10T05:50:56.153Z,10.57
2018-11-10T05:53:25.160Z,10.60
2018-11-10T05:55:53.999Z,11.40
2018-11-10T05:58:22.894Z,10.77
2018-11-10T06:00:52.624Z,10.93
2018-11-10T06:03:22.257Z,10.30
2018-11-10T06:05:51.239Z,10.87
2018-11-10T06:08:20.604Z,10.83
2018-11-10T06:10:49.637Z,10.40
2018-11-10T06:13:18.438Z,11.00
2018-11-10T06:15:47.849Z,10.97
2018-11-10T06:18:16.822Z,11.37
2018-11-10T06:20:45.818Z,10.73
2018-11-10T06:23:14.639Z,11.63
2018-11-10T06:25:43.476Z,11.93
2018-11-10T06:28:12.508Z,11.43
2018-11-10T06:30:41.580Z,10.87
2018-11-10T06:33:10.403Z,11.03
2018-11-10T06:35:40.101Z,11.77
2018-11-10T06:38:09.551Z,12.17
2018-11-10T06:40:38.349Z,11.03
2018-11-10T06:43:07.173Z,10.70
2018-11-10T06:45:36.141Z,9.70
2018-11-10T06:48:05.137Z,11.53
2018-11-10T06:50:34.071Z,10.20
2018-11-10T06:53:03.195Z,10.90
2018-11-10T06:55:32.127Z,10.73
2018-11-10T06:58:01.164Z,11.00
2018-11-10T07:00:30.327Z,10.27
2018-11-10T07:02:59.248Z,10.23
2018-11-10T07:05:29.132Z,9.90
2018-11-10T07:07:58.066Z,9.80
2018-11-10T07:10:27.434Z,9.73
2018-11-10T07:12:56.344Z,9.83
2018-11-10T07:15:25.322Z,9.30
2018-11-10T07:17:54.242Z,9.63
2018-11-10T07:20:23.051Z,10.63
2018-11-10T07:22:51.891Z,10.93
2018-11-10T07:25:20.955Z,9.90
2018-11-10T07:27:49.799Z,9.90
2018-11-10T07:30:18.576Z,9.50
2018-11-10T07:32:47.384Z,9.63
2018-11-10T07:35:16.159Z,9.40
2018-11-10T07:37:45.020Z,9.00
2018-11-10T07:40:14.054Z,10.00
2018-11-10T07:42:42.854Z,9.07
2018-11-10T07:45:15.531Z,9.33
2018-11-10T07:47:45.007Z,11.23
2018-11-10T07:50:13.861Z,9.53
2018-11-10T07:52:43.015Z,9.47
2018-11-10T07:55:13.219Z,9.87
2018-11-10T07:57:42.294Z,10.43
2018-11-10T08:00:13.700Z,9.10
2018-11-10T08:02:42.691Z,9.53
2018-11-10T08:05:12.069Z,9.50
2018-11-10T08:07:41.707Z,9.23
2018-11-10T08:10:10.915Z,9.07
2018-11-10T08:12:39.696Z,9.53
2018-11-10T08:15:11.003Z,9.83
2018-11-10T08:17:40.219Z,8.67
2018-11-10T08:20:09.532Z,8.23
2018-11-10T08:22:38.376Z,8.63
2018-11-10T08:25:08.698Z,8.10
2018-11-10T08:27:37.596Z,10.07
2018-11-10T08:30:08.038Z,10.67
2018-11-10T08:32:36.930Z,12.70
2018-11-10T08:35:06.423Z,13.17
2018-11-10T08:37:35.239Z,13.53
2018-11-10T08:40:04.023Z,13.03
2018-11-10T08:42:32.776Z,14.10
2018-11-10T08:45:01.552Z,14.50
2018-11-10T08:47:30.327Z,13.77
2018-11-10T08:49:59.092Z,14.50
2018-11-10T08:52:27.866Z,13.80
2018-11-10T08:54:56.636Z,16.33
2018-11-10T08:57:25.479Z,14.03
2018-11-10T08:59:54.247Z,15.70
2018-11-10T09:02:23.039Z,17.93
2018-11-10T09:04:51.819Z,13.97
2018-11-10T09:07:20.744Z,13.97
2018-11-10T09:09:49.855Z,13.47
2018-11-10T09:12:18.567Z,16.70
2018-11-10T09:14:47.400Z,13.77
2018-11-10T09:17:16.230Z,13.60
2018-11-10T09:19:45.092Z,23.80
2018-11-10T09:22:13.935Z,24.50
2018-11-10T09:24:43.341Z,13.23
2018-11-10T09:27:12.140Z,12.60
2018-11-10T09:29:40.983Z,12.70
2018-11-10T09:32:09.801Z,10.83
2018-11-10T09:34:38.660Z,11.10
2018-11-10T09:37:07.431Z,10.63
2018-11-10T09:39:36.312Z,10.37
2018-11-10T09:42:06.045Z,9.83
2018-11-10T09:44:37.935Z,9.90
2018-11-10T09:47:06.897Z,9.70
2018-11-10T09:49:35.670Z,9.77
2018-11-10T09:52:04.493Z,8.80
2018-11-10T09:54:33.428Z,8.40
2018-11-10T09:57:02.596Z,8.80
2018-11-10T09:59:31.493Z,9.07
2018-11-10T10:02:00.711Z,8.97
2018-11-10T10:04:29.335Z,9.70
2018-11-10T10:06:58.127Z,9.07
2018-11-10T10:09:26.942Z,9.43
2018-11-10T10:11:55.824Z,10.00
2018-11-10T10:14:24.613Z,8.17
2018-11-10T10:16:53.447Z,8.70
2018-11-10T10:19:22.324Z,8.23
2018-11-10T10:21:51.965Z,7.43
2018-11-10T10:24:20.754Z,7.23
2018-11-10T10:26:49.790Z,6.70
2018-11-10T10:29:18.679Z,5.77
2018-11-10T10:31:47.520Z,4.73
2018-11-10T10:34:16.345Z,4.77
2018-11-10T10:36:45.192Z,4.93
2018-11-10T10:39:13.988Z,4.80
2018-11-10T10:41:42.788Z,4.90
2018-11-10T10:44:11.617Z,5.80
2018-11-10T10:46:40.527Z,6.07
2018-11-10T10:49:09.998Z,6.57
2018-11-10T10:51:38.752Z,5.03
2018-11-10T10:54:08.696Z,4.50
2018-11-10T10:56:37.869Z,4.30
2018-11-10T10:59:06.577Z,4.63
2018-11-10T11:01:40.692Z,4.80
2018-11-10T11:04:15.308Z,5.00
2018-11-10T11:06:44.090Z,4.80
2018-11-10T11:09:13.261Z,4.80
2018-11-10T11:11:42.354Z,4.43
2018-11-10T11:14:12.200Z,4.97
2018-11-10T11:16:41.968Z,5.00
2018-11-10T11:19:10.762Z,9.60
2018-11-10T11:21:39.626Z,7.73
2018-11-10T11:24:08.557Z,6.23
2018-11-10T11:26:37.524Z,9.93
2018-11-10T11:29:06.420Z,11.20
2018-11-10T11:31:35.173Z,13.60
2018-11-10T11:34:04.065Z,7.03
2018-11-10T11:36:32.977Z,5.80
2018-11-10T11:39:02.940Z,4.90
2018-11-10T11:41:32.078Z,4.70
2018-11-10T11:44:00.836Z,4.10
2018-11-10T11:46:30.436Z,8.17
2018-11-10T11:48:59.276Z,4.40
2018-11-10T11:51:28.198Z,4.30
2018-11-10T11:53:58.124Z,4.30
2018-11-10T11:56:26.929Z,4.07
2018-11-10T11:58:55.789Z,3.80
2018-11-10T12:01:25.427Z,3.70
2018-11-10T12:03:54.248Z,3.77
2018-11-10T12:06:23.403Z,3.70
2018-11-10T12:08:53.964Z,3.57
2018-11-10T12:11:22.805Z,3.53
2018-11-10T12:13:52.360Z,3.70
2018-11-10T12:16:27.194Z,4.13
2018-11-10T12:18:50.163Z,6.67
2018-11-10T12:21:19.048Z,6.40
2018-11-10T12:23:47.862Z,6.13
2018-11-10T12:26:16.668Z,6.13
2018-11-10T12:28:46.487Z,6.40
2018-11-10T12:31:15.280Z,6.80
2018-11-10T12:33:44.151Z,7.33
2018-11-10T12:36:12.949Z,6.20
2018-11-10T12:38:42.382Z,5.87
2018-11-10T12:41:11.199Z,6.73
2018-11-10T12:43:40.068Z,3.30
2018-11-10T12:46:09.841Z,3.53
2018-11-10T12:48:38.612Z,7.00
2018-11-10T12:51:07.423Z,4.33
2018-11-10T12:53:36.510Z,3.77
2018-11-10T12:56:06.107Z,3.27
2018-11-10T12:58:34.970Z,2.97
2018-11-10T13:01:05.060Z,3.10
2018-11-10T13:03:33.888Z,6.03
2018-11-10T13:06:03.415Z,3.03
2018-11-10T13:08:34.716Z,2.20
2018-11-10T13:11:03.761Z,2.20
2018-11-10T13:13:32.540Z,2.60
2018-11-10T13:16:01.318Z,2.63
2018-11-10T13:18:30.090Z,2.70
2018-11-10T13:20:58.933Z,2.63
2018-11-10T13:23:28.843Z,2.90
2018-11-10T13:25:57.627Z,3.50
2018-11-10T13:28:26.909Z,2.90
2018-11-10T13:30:55.824Z,3.07
2018-11-10T13:33:24.551Z,3.00
2018-11-10T13:35:53.409Z,2.77
2018-11-10T13:38:22.216Z,2.77
2018-11-10T13:40:51.363Z,2.20
2018-11-10T13:43:20.308Z,2.70
2018-11-10T13:45:49.065Z,2.40
2018-11-10T13:48:17.869Z,4.83
2018-11-10T13:50:46.823Z,7.57
2018-11-10T13:53:15.675Z,4.20
2018-11-10T13:55:44.601Z,3.50
2018-11-10T13:58:14.379Z,2.83
2018-11-10T14:00:43.198Z,2.40
2018-11-10T14:03:11.956Z,2.03
2018-11-10T14:05:40.943Z,2.10
2018-11-10T14:08:09.590Z,1.83
2018-11-10T14:10:38.343Z,1.77
2018-11-10T14:13:07.160Z,2.90
2018-11-10T14:15:35.900Z,2.27
2018-11-10T14:18:04.795Z,2.10
2018-11-10T14:20:35.125Z,2.27
2018-11-10T14:23:04.100Z,2.10
2018-11-10T14:25:32.871Z,2.20
2018-11-10T14:28:01.660Z,2.40
2018-11-10T14:30:30.428Z,1.97
2018-11-10T14:32:59.245Z,1.63
2018-11-10T14:35:28.052Z,1.37
2018-11-10T14:37:56.844Z,1.67
2018-11-10T14:40:25.650Z,1.80
2018-11-10T14:42:54.475Z,1.87
2018-11-10T14:45:23.240Z,1.80
2018-11-10T14:47:52.051Z,1.67
2018-11-10T14:50:21.726Z,2.30
2018-11-10T14:52:50.615Z,1.90
2018-11-10T14:55:19.343Z,1.80
2018-11-10T14:57:48.150Z,7.20
2018-11-10T15:00:19.544Z,2.87
2018-11-10T15:02:48.335Z,24.53
2018-11-10T15:05:17.438Z,3.80
2018-11-10T15:07:46.229Z,2.33
2018-11-10T15:10:16.120Z,2.17
2018-11-10T15:12:45.348Z,2.20
2018-11-10T15:15:15.323Z,2.20
2018-11-10T15:17:44.420Z,2.07
2018-11-10T15:20:14.475Z,2.40
2018-11-10T15:22:43.289Z,3.17
2018-11-10T15:25:13.667Z,3.27
2018-11-10T15:27:42.380Z,4.10
2018-11-10T15:30:13.785Z,4.20
2018-11-10T15:32:43.446Z,4.50
2018-11-10T15:35:13.840Z,5.70
2018-11-10T15:37:43.823Z,6.37
2018-11-10T15:40:13.655Z,5.20
2018-11-10T15:42:42.564Z,5.40
2018-11-10T15:45:12.475Z,5.23
2018-11-10T15:47:41.915Z,4.97
2018-11-10T15:50:11.984Z,6.60
2018-11-10T15:52:40.858Z,5.00
2018-11-10T15:55:10.594Z,4.93
2018-11-10T15:57:39.796Z,4.57
2018-11-10T16:00:10.864Z,3.47
2018-11-10T16:02:40.035Z,3.90
2018-11-10T16:05:09.679Z,5.30
2018-11-10T16:07:38.566Z,4.80
2018-11-10T16:10:07.637Z,4.53
2018-11-10T16:12:37.002Z,4.00
2018-11-10T16:15:07.851Z,4.63
2018-11-10T16:17:36.684Z,4.03
2018-11-10T16:20:07.883Z,7.67
2018-11-10T16:22:36.700Z,5.10
2018-11-10T16:25:06.378Z,8.37
2018-11-10T16:27:35.255Z,10.43
2018-11-10T16:30:04.197Z,30.43
2018-11-10T16:32:33.015Z,8.40
2018-11-10T16:35:01.873Z,6.40
2018-11-10T16:37:30.698Z,13.83
2018-11-10T16:39:59.507Z,19.77
2018-11-10T16:42:28.323Z,14.37
2018-11-10T16:44:57.262Z,30.20
2018-11-10T16:47:26.037Z,27.07
2018-11-10T16:49:55.157Z,20.77
2018-11-10T16:52:23.924Z,13.97
2018-11-10T16:54:52.756Z,10.63
2018-11-10T16:57:21.542Z,9.87
2018-11-10T16:59:50.409Z,11.63
2018-11-10T17:02:19.247Z,17.77
2018-11-10T17:04:47.968Z,14.57
2018-11-10T17:07:16.828Z,13.10
2018-11-10T17:09:45.741Z,13.60
2018-11-10T17:12:14.627Z,10.03
2018-11-10T17:14:43.471Z,9.93
2018-11-10T17:17:12.551Z,8.57
2018-11-10T17:19:41.413Z,8.93
2018-11-10T17:22:10.465Z,9.10
2018-11-10T17:24:40.154Z,10.77
2018-11-10T17:27:09.015Z,9.17
2018-11-10T17:29:37.756Z,10.43
2018-11-10T17:32:06.684Z,9.73
2018-11-10T17:34:36.588Z,10.37
2018-11-10T17:37:05.452Z,11.97
2018-11-10T17:39:34.445Z,14.10
2018-11-10T17:42:03.322Z,14.37
2018-11-10T17:44:32.149Z,13.90
2018-11-10T17:47:01.181Z,14.20
2018-11-10T17:49:32.198Z,14.03
2018-11-10T17:52:01.323Z,14.47
2018-11-10T17:54:30.398Z,14.43
2018-11-10T17:56:59.187Z,14.97
2018-11-10T17:59:28.023Z,16.10
2018-11-10T18:01:57.130Z,14.23
2018-11-10T18:04:25.814Z,18.40
2018-11-10T18:06:55.025Z,19.03
2018-11-10T18:09:23.820Z,16.33
2018-11-10T18:11:52.867Z,15.10
2018-11-10T18:14:21.903Z,14.57
2018-11-10T18:16:50.748Z,13.97
2018-11-10T18:19:19.519Z,14.17
2018-11-10T18:21:48.367Z,13.03
2018-11-10T18:24:17.612Z,13.43
2018-11-10T18:26:46.448Z,14.17
2018-11-10T18:29:15.390Z,15.63
2018-11-10T18:31:44.376Z,15.57
2018-11-10T18:34:13.252Z,16.00
2018-11-10T18:36:42.072Z,14.73
2018-11-10T18:39:11.102Z,14.63
2018-11-10T18:41:40.230Z,14.60
2018-11-10T18:44:09.447Z,15.60
2018-11-10T18:46:38.667Z,13.93
2018-11-10T18:49:07.456Z,14.10
2018-11-10T18:51:36.295Z,12.53
2018-11-10T18:54:05.287Z,13.90
2018-11-10T18:56:34.104Z,15.53
2018-11-10T18:59:02.914Z,15.33
2018-11-10T19:01:31.741Z,14.63
2018-11-10T19:04:00.603Z,15.80
2018-11-10T19:06:29.484Z,15.27
2018-11-10T19:08:58.172Z,15.83
2018-11-10T19:11:26.991Z,31.07
2018-11-10T19:13:55.759Z,32.70
2018-11-10T19:16:24.701Z,32.37
2018-11-10T19:18:53.711Z,37.53
2018-11-10T19:21:22.651Z,34.60
2018-11-10T19:23:51.632Z,21.60
2018-11-10T19:26:20.780Z,17.87
2018-11-10T19:28:49.676Z,16.53
2018-11-10T19:31:18.590Z,15.83
2018-11-10T19:33:47.431Z,17.20
2018-11-10T19:36:16.352Z,15.97
2018-11-10T19:38:45.334Z,17.50
2018-11-10T19:41:14.079Z,17.40
2018-11-10T19:43:42.903Z,18.07
2018-11-10T19:46:11.883Z,17.77
2018-11-10T19:48:40.702Z,17.20
2018-11-10T19:51:14.950Z,16.40
2018-11-10T19:53:44.077Z,16.33
2018-11-10T19:56:13.200Z,15.27
2018-11-10T19:58:42.060Z,17.50
2018-11-10T20:01:11.504Z,16.87
2018-11-10T20:03:40.449Z,16.43
2018-11-10T20:06:09.308Z,14.50
2018-11-10T20:08:40.264Z,15.03
2018-11-10T20:11:09.120Z,14.50
2018-11-10T20:13:37.940Z,14.27
2018-11-10T20:16:06.730Z,12.57
2018-11-10T20:18:35.563Z,12.97
2018-11-10T20:21:04.452Z,13.53
2018-11-10T20:23:33.315Z,14.47
2018-11-10T20:26:02.195Z,13.60
2018-11-10T20:28:31.104Z,13.37
2018-11-10T20:30:59.976Z,12.30
2018-11-10T20:33:28.839Z,12.63
2018-11-10T20:35:57.646Z,13.43
2018-11-10T20:38:26.552Z,16.03
2018-11-10T20:40:55.406Z,15.07
2018-11-10T20:43:24.254Z,12.50
2018-11-10T20:45:53.184Z,13.60
2018-11-10T20:48:22.027Z,13.43
2018-11-10T20:50:51.399Z,15.57
2018-11-10T20:53:20.284Z,15.87
2018-11-10T20:55:49.228Z,15.30
2018-11-10T20:58:18.069Z,12.53
2018-11-10T21:00:47.374Z,13.57
2018-11-10T21:03:16.560Z,15.27
2018-11-10T21:05:45.546Z,14.90
2018-11-10T21:08:14.421Z,14.60
2018-11-10T21:10:43.291Z,16.63
2018-11-10T21:13:12.059Z,22.50
2018-11-10T21:15:40.854Z,28.27
2018-11-10T21:18:09.872Z,22.47
2018-11-10T21:20:38.725Z,17.23
2018-11-10T21:23:07.668Z,17.43
2018-11-10T21:25:36.471Z,18.37
2018-11-10T21:28:07.382Z,16.33
2018-11-10T21:30:36.231Z,15.13
2018-11-10T21:33:05.099Z,13.53
2018-11-10T21:35:33.938Z,12.53
2018-11-10T21:38:02.940Z,11.60
2018-11-10T21:40:31.724Z,13.33
2018-11-10T21:43:00.620Z,11.37
2018-11-10T21:45:29.424Z,11.33
2018-11-10T21:47:58.210Z,12.70
2018-11-10T21:50:27.020Z,16.13
2018-11-10T21:52:55.793Z,16.60
2018-11-10T21:55:24.689Z,15.77
2018-11-10T21:57:53.484Z,14.33
2018-11-10T22:00:22.879Z,14.77
2018-11-10T22:02:51.960Z,14.47
2018-11-10T22:05:20.992Z,14.57
2018-11-10T22:07:49.784Z,14.27
2018-11-10T22:10:19.435Z,13.13
2018-11-10T22:12:48.277Z,13.53
2018-11-10T22:15:19.920Z,14.67
2018-11-10T22:17:48.986Z,11.77
2018-11-10T22:20:19.558Z,10.77
2018-11-10T22:22:48.576Z,12.50
2018-11-10T22:25:17.840Z,15.03
2018-11-10T22:27:48.285Z,14.70
2018-11-10T22:30:18.379Z,15.23
2018-11-10T22:32:47.902Z,13.40
2018-11-10T22:35:16.796Z,13.80
2018-11-10T22:37:46.700Z,13.33
2018-11-10T22:40:18.658Z,13.40
2018-11-10T22:42:47.749Z,14.37
2018-11-10T22:45:18.910Z,15.70
2018-11-10T22:47:48.104Z,14.70
2018-11-10T22:50:18.305Z,14.63
2018-11-10T22:52:47.256Z,15.80
2018-11-10T22:55:16.207Z,15.27
2018-11-10T22:57:45.163Z,15.40
2018-11-10T23:00:16.416Z,15.27
2018-11-10T23:02:47.439Z,15.80
2018-11-10T23:05:16.765Z,17.30
2018-11-10T23:07:45.607Z,16.90
2018-11-10T23:10:14.976Z,17.10
2018-11-10T23:12:44.963Z,17.33
2018-11-10T23:15:14.177Z,16.60
2018-11-10T23:17:43.260Z,16.23
2018-11-10T23:20:13.990Z,16.17
2018-11-10T23:22:42.831Z,15.83
2018-11-10T23:25:15.117Z,15.50
2018-11-10T23:27:44.001Z,16.17
2018-11-10T23:30:15.017Z,16.83
2018-11-10T23:32:44.580Z,17.63
2018-11-10T23:35:13.509Z,16.80
2018-11-10T23:37:42.344Z,16.93
2018-11-10T23:40:12.748Z,17.00
2018-11-10T23:42:42.004Z,16.67
2018-11-10T23:45:11.326Z,16.23
2018-11-10T23:47:40.343Z,16.83
2018-11-10T23:50:11.381Z,16.60
2018-11-10T23:52:40.484Z,16.73
2018-11-10T23:55:10.318Z,15.33
2018-11-10T23:57:39.196Z,14.97
